Bonanza, Idaho
Current Conditions -  °F | °C
As of 3:55 PM on Sunday 21 Dec 2014 (Local Time) from KLLJ Reporting Station
Few Clouds Few Clouds  
Wind Chill: 31°   Ceiling: Unl
Heat Index: 40°   Visibility: 10mi
Dew Point: 23°   Wind: 16mph
Humidity: 51%   Direction: 310°NW
Pressure: 29.82"   Gusts: 24mph
Location:  44.3379°N, 114.824°W
Report Text: KLLJ 212255Z AUTO 31014G21KT 10SM FEW065 04/M05 A2982 RMK AO2 SLP100 T00441050
Loading
Personal Weather Stations






























Interactive Weather Map New forecast layout! Learn more

10-Day Weather Forecast

Advertisements
Track Severe Weather on mobile